Time;durP1;ratioP1;P1;durP2;ratioP2;P2;SDS_P1;SDS_P2;PMS_P1;PMS_P2;Temp;Humidity;BMP_temperature;BMP_pressure;BME280_temperature;BME280_humidity;BME280_pressure;Samples;Min_cycle;Max_cycle;Signal;HPM_P1;HPM_P2
2023/09/09 00:01:10;;;;;;;9.50;6.80;;;;;;;-128.00;-1.00;-1.00;100584;319;1003529;-36
2023/09/09 00:03:35;;;;;;;11.60;7.20;;;;;;;-128.00;-1.00;-1.00;100738;318;1003948;-36
2023/09/09 00:06:09;;;;;;;12.50;8.10;;;;;;;-128.00;-1.00;-1.00;100775;318;1004060;-38
2023/09/09 00:08:34;;;;;;;11.70;8.50;;;;;;;-128.00;-1.00;-1.00;100869;318;1002657;-34
2023/09/09 00:11:00;;;;;;;14.00;8.60;;;;;;;-128.00;-1.00;-1.00;100717;319;1003072;-31
2023/09/09 00:13:26;;;;;;;5.10;4.60;;;;;;;-128.00;-1.00;-1.00;100847;318;1003714;-29
2023/09/09 00:15:54;;;;;;;12.60;8.00;;;;;;;-128.00;-1.00;-1.00;100755;318;1003961;-29
2023/09/09 00:18:20;;;;;;;13.90;9.00;;;;;;;-128.00;-1.00;-1.00;100827;318;1002959;-34
2023/09/09 00:20:46;;;;;;;12.40;8.10;;;;;;;-128.00;-1.00;-1.00;100556;318;1003375;-34
2023/09/09 00:23:12;;;;;;;13.50;6.00;;;;;;;-128.00;-1.00;-1.00;100877;318;1004694;-30
2023/09/09 00:25:39;;;;;;;11.50;9.20;;;;;;;-128.00;-1.00;-1.00;100751;318;1003060;-36
2023/09/09 00:28:05;;;;;;;11.00;8.80;;;;;;;-128.00;-1.00;-1.00;100734;318;1003231;-34
2023/09/09 00:30:31;;;;;;;11.70;8.30;;;;;;;-128.00;-1.00;-1.00;100831;318;1003400;-35
2023/09/09 00:32:57;;;;;;;15.90;8.40;;;;;;;-128.00;-1.00;-1.00;100650;319;1004049;-35
2023/09/09 00:35:23;;;;;;;8.60;6.20;;;;;;;-128.00;-1.00;-1.00;100716;318;1003859;-32
2023/09/09 01:19:18;;;;;;;12.80;9.40;;;;;;;-99.92;18.47;19964.66;101354;317;1575637;-30
2023/09/09 01:21:44;;;;;;;16.90;7.90;;;;;;;-128.00;-1.00;-1.00;100372;318;1002901;-30
2023/09/09 01:24:15;;;;;;;;;;;;;;;-128.00;-1.00;-1.00;100858;316;1005193;-34
2023/09/09 01:26:44;;;;;;;8.20;6.50;;;;;;;-128.00;-1.00;-1.00;101087;316;1004459;-34
2023/09/09 01:29:10;;;;;;;7.70;6.50;;;;;;;-128.00;-1.00;-1.00;100847;318;1003828;-31
2023/09/09 01:31:35;;;;;;;18.20;11.60;;;;;;;-128.00;-1.00;-1.00;101029;316;1004525;-31
2023/09/09 01:34:01;;;;;;;16.00;11.50;;;;;;;-128.00;-1.00;-1.00;101016;316;1004620;-34
2023/09/09 01:36:27;;;;;;;9.80;8.80;;;;;;;-128.00;-1.00;-1.00;101033;316;1003761;-34
2023/09/09 01:38:53;;;;;;;20.30;11.50;;;;;;;-128.00;-1.00;-1.00;101029;316;1004253;-30
2023/09/09 01:41:18;;;;;;;14.60;10.90;;;;;;;-128.00;-1.00;-1.00;101015;316;1002947;-30
2023/09/09 01:43:44;;;;;;;19.00;11.70;;;;;;;-128.00;-1.00;-1.00;100732;318;1003627;-30
2023/09/09 01:46:09;;;;;;;30.00;21.50;;;;;;;-128.00;-1.00;-1.00;91688;316;3003002;-35
2023/09/09 01:48:37;;;;;;;14.20;11.00;;;;;;;-128.00;-1.00;-1.00;68073;317;7504266;-30
2023/09/09 01:51:03;;;;;;;20.40;14.70;;;;;;;-128.00;-1.00;-1.00;21431;321;7505520;-37
2023/09/09 01:53:29;;;;;;;13.80;8.80;;;;;;;-128.00;-1.00;-1.00;21231;316;7504833;-34
2023/09/09 01:56:00;;;;;;;13.80;8.80;;;;;;;-128.00;-1.00;-1.00;23400;322;7505788;-35
2023/09/09 01:58:28;;;;;;;19.70;11.70;;;;;;;-128.00;-1.00;-1.00;24557;322;7505489;-34
2023/09/09 02:00:54;;;;;;;22.40;14.70;;;;;;;-128.00;-1.00;-1.00;19415;322;7505035;-31
2023/09/09 02:03:21;;;;;;;20.40;12.70;;;;;;;-128.00;-1.00;-1.00;19477;317;7505738;-31
2023/09/09 02:05:47;;;;;;;25.00;15.60;;;;;;;-128.00;-1.00;-1.00;19063;322;7504697;-35
2023/09/09 02:08:13;;;;;;;21.10;13.90;;;;;;;-128.00;-1.00;-1.00;19594;317;7505243;-30
2023/09/09 02:10:39;;;;;;;13.50;10.50;;;;;;;-128.00;-1.00;-1.00;25656;317;7505582;-30
2023/09/09 02:13:05;;;;;;;15.40;10.90;;;;;;;-128.00;-1.00;-1.00;19031;321;7504383;-30
2023/09/09 02:15:33;;;;;;;16.40;10.90;;;;;;;-128.00;-1.00;-1.00;25468;316;7505305;-35
2023/09/09 02:17:59;;;;;;;20.60;10.50;;;;;;;-128.00;-1.00;-1.00;71662;316;7354817;-30
2023/09/09 02:20:24;;;;;;;13.10;7.90;;;;;;;-128.00;-1.00;-1.00;100988;317;1003605;-30
2023/09/09 02:22:50;;;;;;;14.90;10.50;;;;;;;-128.00;-1.00;-1.00;100994;316;1003692;-30
2023/09/09 02:25:16;;;;;;;13.00;11.70;;;;;;;-128.00;-1.00;-1.00;101027;317;1002972;-35
2023/09/09 02:27:41;;;;;;;11.70;8.40;;;;;;;-128.00;-1.00;-1.00;100960;316;1003359;-35
2023/09/09 02:30:07;;;;;;;11.90;9.60;;;;;;;-128.00;-1.00;-1.00;100996;317;1003420;-36
2023/09/09 02:32:33;;;;;;;15.10;11.30;;;;;;;-128.00;-1.00;-1.00;101053;317;1003420;-33
2023/09/09 02:34:59;;;;;;;22.20;14.30;;;;;;;-128.00;-1.00;-1.00;74464;317;7504160;-35
2023/09/09 02:37:27;;;;;;;24.50;18.30;;;;;;;-128.00;-1.00;-1.00;55202;317;7504362;-35
2023/09/09 02:39:54;;;;;;;34.50;23.30;;;;;;;-128.00;-1.00;-1.00;20155;318;7504314;-35
2023/09/09 02:42:22;;;;;;;17.10;13.00;;;;;;;-128.00;-1.00;-1.00;19469;322;7504418;-35
2023/09/09 02:44:51;;;;;;;16.10;12.30;;;;;;;-128.00;-1.00;-1.00;19069;317;7506271;-35
2023/09/09 02:47:18;;;;;;;18.60;14.10;;;;;;;-128.00;-1.00;-1.00;19493;322;7504429;-35
2023/09/09 02:49:43;;;;;;;16.90;11.00;;;;;;;-128.00;-1.00;-1.00;80726;317;7504128;-30
2023/09/09 02:52:09;;;;;;;;;;;;;;;-128.00;-1.00;-1.00;100434;317;1002958;-31
2023/09/09 02:54:38;;;;;;;14.20;10.80;;;;;;;-128.00;-1.00;-1.00;23835;317;7504581;-35
2023/09/09 02:57:03;;;;;;;27.10;18.20;;;;;;;-128.00;-1.00;-1.00;19082;317;7505740;-34
2023/09/09 02:59:31;;;;;;;14.80;11.70;;;;;;;-128.00;-1.00;-1.00;19052;320;7505751;-30
2023/09/09 03:01:57;;;;;;;19.30;14.20;;;;;;;-128.00;-1.00;-1.00;19078;317;7506121;-35
2023/09/09 03:04:23;;;;;;;35.10;24.60;;;;;;;-128.00;-1.00;-1.00;19465;317;7506114;-30
2023/09/09 03:06:49;;;;;;;65.40;42.60;;;;;;;-128.00;-1.00;-1.00;19491;322;7505489;-34
2023/09/09 03:09:16;;;;;;;79.20;53.20;;;;;;;-128.00;-1.00;-1.00;19494;320;7504906;-30
2023/09/09 03:11:43;;;;;;;68.80;41.00;;;;;;;-128.00;-1.00;-1.00;20159;320;7504768;-30
2023/09/09 03:14:10;;;;;;;51.10;36.00;;;;;;;-128.00;-1.00;-1.00;19627;321;7505124;-30
2023/09/09 03:16:37;;;;;;;53.10;34.30;;;;;;;-128.00;-1.00;-1.00;19494;317;7505426;-30
2023/09/09 03:19:02;;;;;;;54.90;29.90;;;;;;;-128.00;-1.00;-1.00;19068;316;7505538;-34
2023/09/09 03:21:28;;;;;;;40.20;28.00;;;;;;;-128.00;-1.00;-1.00;19020;322;7505981;-34
2023/09/09 03:23:55;;;;;;;40.80;28.20;;;;;;;-128.00;-1.00;-1.00;19134;316;7504249;-34
2023/09/09 03:26:23;;;;;;;24.10;16.50;;;;;;;-128.00;-1.00;-1.00;37664;319;7504806;-34
2023/09/09 03:28:51;;;;;;;23.30;14.40;;;;;;;-128.00;-1.00;-1.00;78812;317;7503936;-35
2023/09/09 03:31:17;;;;;;;21.10;13.20;;;;;;;-128.00;-1.00;-1.00;28606;318;7504585;-35
2023/09/09 03:33:42;;;;;;;15.20;10.90;;;;;;;-128.00;-1.00;-1.00;19076;322;7504933;-35
2023/09/09 03:36:10;;;;;;;15.20;10.90;;;;;;;-128.00;-1.00;-1.00;23114;317;7504883;-34
2023/09/09 03:38:36;;;;;;;17.70;13.00;;;;;;;-128.00;-1.00;-1.00;95346;317;4249427;-36
2023/09/09 03:41:06;;;;;;;15.40;12.60;;;;;;;-128.00;-1.00;-1.00;100651;317;1003548;-31
2023/09/09 03:43:33;;;;;;;20.50;15.20;;;;;;;-128.00;-1.00;-1.00;101034;317;1003528;-36
2023/09/09 03:45:58;;;;;;;33.80;22.00;;;;;;;-128.00;-1.00;-1.00;101002;316;1004078;-36
2023/09/09 03:48:24;;;;;;;32.80;19.00;;;;;;;-128.00;-1.00;-1.00;101012;316;1003066;-35
2023/09/09 03:50:50;;;;;;;47.80;33.90;;;;;;;-128.00;-1.00;-1.00;100673;317;1005016;-35
2023/09/09 03:53:15;;;;;;;34.20;24.00;;;;;;;-128.00;-1.00;-1.00;100688;317;1003919;-34
2023/09/09 03:55:41;;;;;;;29.60;19.80;;;;;;;-128.00;-1.00;-1.00;101041;317;1004373;-34
2023/09/09 03:58:07;;;;;;;30.00;22.30;;;;;;;-128.00;-1.00;-1.00;100956;317;1003004;-32
2023/09/09 04:00:33;;;;;;;32.80;25.00;;;;;;;-128.00;-1.00;-1.00;101024;316;1003836;-34
2023/09/09 04:02:59;;;;;;;30.80;22.60;;;;;;;-128.00;-1.00;-1.00;100998;316;1002832;-31
2023/09/09 04:05:24;;;;;;;17.70;14.00;;;;;;;-128.00;-1.00;-1.00;100977;316;1003893;-36
2023/09/09 04:07:51;;;;;;;24.80;16.00;;;;;;;-128.00;-1.00;-1.00;100932;316;1003407;-34
2023/09/09 04:10:16;;;;;;;20.30;14.40;;;;;;;-128.00;-1.00;-1.00;100694;318;1004437;-31
2023/09/09 04:12:42;;;;;;;33.60;18.80;;;;;;;-128.00;-1.00;-1.00;100931;317;1003266;-36
2023/09/09 04:15:08;;;;;;;25.30;16.70;;;;;;;-128.00;-1.00;-1.00;100623;316;1003666;-30
2023/09/09 04:17:34;;;;;;;22.30;14.60;;;;;;;-128.00;-1.00;-1.00;99500;317;2053915;-31
2023/09/09 04:20:01;;;;;;;15.90;11.90;;;;;;;-128.00;-1.00;-1.00;100736;317;1003300;-32
2023/09/09 04:22:26;;;;;;;16.80;13.50;;;;;;;-128.00;-1.00;-1.00;99750;317;1652387;-34
2023/09/09 04:24:55;;;;;;;21.90;15.10;;;;;;;-128.00;-1.00;-1.00;93017;316;7354368;-30
2023/09/09 04:27:21;;;;;;;48.60;31.50;;;;;;;-128.00;-1.00;-1.00;101037;316;1003883;-35
2023/09/09 04:29:47;;;;;;;11.40;10.20;;;;;;;-128.00;-1.00;-1.00;101008;316;1005074;-30
2023/09/09 04:32:13;;;;;;;26.10;16.50;;;;;;;-128.00;-1.00;-1.00;101009;317;1005215;-30
2023/09/09 04:34:39;;;;;;;31.10;15.70;;;;;;;-128.00;-1.00;-1.00;100996;317;1003001;-37
2023/09/09 04:37:05;;;;;;;18.50;13.10;;;;;;;-128.00;-1.00;-1.00;100992;317;1002922;-30
2023/09/09 04:39:30;;;;;;;23.30;14.70;;;;;;;-128.00;-1.00;-1.00;100973;317;1003065;-35
2023/09/09 04:41:56;;;;;;;28.90;15.30;;;;;;;-128.00;-1.00;-1.00;100991;316;1003558;-30
2023/09/09 04:44:21;;;;;;;21.80;15.10;;;;;;;-128.00;-1.00;-1.00;100646;318;1004034;-29
2023/09/09 04:46:47;;;;;;;20.70;14.90;;;;;;;-128.00;-1.00;-1.00;100941;316;1003271;-30
2023/09/09 04:49:12;;;;;;;31.90;14.80;;;;;;;-128.00;-1.00;-1.00;101004;316;1003151;-30
2023/09/09 04:51:38;;;;;;;15.20;6.10;;;;;;;-128.00;-1.00;-1.00;100992;316;1003832;-30
2023/09/09 04:54:04;;;;;;;18.20;10.90;;;;;;;-128.00;-1.00;-1.00;101062;317;1003807;-34
2023/09/09 04:56:29;;;;;;;14.80;11.10;;;;;;;-128.00;-1.00;-1.00;101035;316;1003278;-36
2023/09/09 04:58:55;;;;;;;9.20;7.40;;;;;;;-128.00;-1.00;-1.00;101025;317;1003945;-34
2023/09/09 05:01:20;;;;;;;17.10;11.40;;;;;;;-128.00;-1.00;-1.00;100745;317;1003396;-35
2023/09/09 05:03:46;;;;;;;18.60;13.00;;;;;;;-128.00;-1.00;-1.00;100997;317;1003463;-30
2023/09/09 05:06:12;;;;;;;13.30;9.90;;;;;;;-128.00;-1.00;-1.00;100980;317;1002999;-29
2023/09/09 05:08:37;;;;;;;14.40;9.50;;;;;;;-128.00;-1.00;-1.00;100962;317;1004255;-34
2023/09/09 05:11:03;;;;;;;19.20;10.20;;;;;;;-128.00;-1.00;-1.00;100965;317;1003909;-32
2023/09/09 05:13:28;;;;;;;17.50;9.30;;;;;;;-128.00;-1.00;-1.00;100673;317;1003227;-33
2023/09/09 05:15:54;;;;;;;13.60;8.90;;;;;;;-128.00;-1.00;-1.00;101033;317;1003038;-34
2023/09/09 05:18:20;;;;;;;7.70;5.70;;;;;;;-128.00;-1.00;-1.00;101050;317;1003272;-36
2023/09/09 05:20:46;;;;;;;6.90;5.00;;;;;;;-128.00;-1.00;-1.00;100634;319;1003277;-31
2023/09/09 05:23:11;;;;;;;14.10;9.20;;;;;;;-128.00;-1.00;-1.00;101015;317;1002875;-35
2023/09/09 05:25:37;;;;;;;27.40;11.50;;;;;;;-128.00;-1.00;-1.00;100955;317;1003437;-36
2023/09/09 05:28:03;;;;;;;12.40;8.30;;;;;;;-128.00;-1.00;-1.00;100720;317;1003904;-36
2023/09/09 05:30:29;;;;;;;18.10;9.30;;;;;;;-128.00;-1.00;-1.00;100995;317;1002956;-30
2023/09/09 05:32:55;;;;;;;12.40;9.60;;;;;;;-128.00;-1.00;-1.00;84241;317;7203823;-35
2023/09/09 05:35:20;;;;;;;4.00;3.40;;;;;;;-128.00;-1.00;-1.00;37802;322;7504111;-31
2023/09/09 05:37:48;;;;;;;13.20;8.50;;;;;;;-128.00;-1.00;-1.00;34503;320;7505254;-35
2023/09/09 05:40:14;;;;;;;18.40;9.40;;;;;;;-128.00;-1.00;-1.00;19473;322;7504690;-34
2023/09/09 05:42:41;;;;;;;17.60;9.70;;;;;;;-128.00;-1.00;-1.00;19493;322;7505104;-36
2023/09/09 05:45:11;;;;;;;10.90;8.50;;;;;;;-128.00;-1.00;-1.00;36718;320;7504886;-31
2023/09/09 05:47:36;;;;;;;10.20;8.30;;;;;;;-128.00;-1.00;-1.00;100805;316;1004845;-36
2023/09/09 05:50:02;;;;;;;13.20;8.30;;;;;;;-128.00;-1.00;-1.00;100955;316;1003817;-35
2023/09/09 05:52:29;;;;;;;12.50;8.20;;;;;;;-128.00;-1.00;-1.00;100965;317;1003049;-34
2023/09/09 05:54:55;;;;;;;15.10;8.30;;;;;;;-128.00;-1.00;-1.00;100628;317;1003222;-31
2023/09/09 05:57:21;;;;;;;18.60;10.70;;;;;;;-128.00;-1.00;-1.00;101002;317;1004175;-30
2023/09/09 05:59:46;;;;;;;23.50;11.90;;;;;;;-128.00;-1.00;-1.00;100979;317;1003324;-37
2023/09/09 06:02:12;;;;;;;14.10;8.80;;;;;;;-128.00;-1.00;-1.00;101016;316;1003942;-30
2023/09/09 06:04:38;;;;;;;17.80;11.10;;;;;;;-128.00;-1.00;-1.00;100976;317;1005141;-32
2023/09/09 06:07:04;;;;;;;20.60;9.60;;;;;;;-128.00;-1.00;-1.00;101007;316;1003272;-30
2023/09/09 06:09:29;;;;;;;22.50;11.50;;;;;;;-128.00;-1.00;-1.00;101036;317;1003251;-32
2023/09/09 06:11:55;;;;;;;13.40;10.10;;;;;;;-128.00;-1.00;-1.00;101003;320;1003006;-35
2023/09/09 06:14:21;;;;;;;13.20;8.90;;;;;;;-128.00;-1.00;-1.00;101002;316;1003006;-30
2023/09/09 06:16:46;;;;;;;16.90;9.00;;;;;;;-128.00;-1.00;-1.00;100677;317;1002900;-31
2023/09/09 06:19:12;;;;;;;17.80;10.40;;;;;;;-128.00;-1.00;-1.00;100979;316;1003023;-31
2023/09/09 06:21:37;;;;;;;18.20;10.60;;;;;;;-128.00;-1.00;-1.00;96687;316;2702525;-35
2023/09/09 06:24:03;;;;;;;11.10;9.00;;;;;;;-128.00;-1.00;-1.00;100968;317;1004838;-31
2023/09/09 06:26:32;;;;;;;15.70;11.60;;;;;;;-128.00;-1.00;-1.00;99030;317;2703065;-38
2023/09/09 06:28:58;;;;;;;8.80;7.00;;;;;;;-128.00;-1.00;-1.00;99732;316;2875636;-31
2023/09/09 06:31:24;;;;;;;13.80;8.70;;;;;;;-128.00;-1.00;-1.00;89554;317;3694479;-31
2023/09/09 06:33:50;;;;;;;13.90;10.90;;;;;;;-128.00;-1.00;-1.00;83753;317;4502666;-31
2023/09/09 06:36:16;;;;;;;11.70;9.60;;;;;;;-128.00;-1.00;-1.00;98487;317;1959028;-37
2023/09/09 06:38:42;;;;;;;24.10;11.70;;;;;;;-128.00;-1.00;-1.00;101014;317;1003552;-35
2023/09/09 06:41:08;;;;;;;7.20;6.10;;;;;;;-128.00;-1.00;-1.00;91068;317;4685801;-34
2023/09/09 06:43:33;;;;;;;17.10;9.40;;;;;;;-128.00;-1.00;-1.00;100965;317;1004818;-34
2023/09/09 06:46:00;;;;;;;20.60;9.20;;;;;;;-128.00;-1.00;-1.00;100975;316;1003729;-34
2023/09/09 06:48:25;;;;;;;10.80;8.30;;;;;;;-128.00;-1.00;-1.00;100961;316;1002957;-36
2023/09/09 06:50:51;;;;;;;12.70;10.10;;;;;;;-128.00;-1.00;-1.00;100997;317;1004383;-35
2023/09/09 06:53:17;;;;;;;13.60;10.20;;;;;;;-128.00;-1.00;-1.00;100804;318;1003597;-40
2023/09/09 06:55:46;;;;;;;17.60;10.30;;;;;;;-128.00;-1.00;-1.00;101041;317;1004563;-31
2023/09/09 06:58:12;;;;;;;12.90;9.50;;;;;;;-128.00;-1.00;-1.00;101004;316;1003906;-31
2023/09/09 07:00:38;;;;;;;13.20;9.60;;;;;;;-128.00;-1.00;-1.00;101011;317;1003633;-34
2023/09/09 07:03:05;;;;;;;20.50;11.20;;;;;;;-128.00;-1.00;-1.00;100678;317;1003141;-35
2023/09/09 07:05:31;;;;;;;10.90;8.70;;;;;;;-128.00;-1.00;-1.00;100777;317;1003756;-32
2023/09/09 07:07:57;;;;;;;12.10;8.70;;;;;;;-128.00;-1.00;-1.00;101037;316;1003207;-35
2023/09/09 07:10:23;;;;;;;14.50;7.90;;;;;;;-128.00;-1.00;-1.00;101057;317;1002970;-31
2023/09/09 07:12:49;;;;;;;15.40;8.00;;;;;;;-128.00;-1.00;-1.00;101006;320;1004795;-31
2023/09/09 07:15:15;;;;;;;14.90;9.90;;;;;;;-128.00;-1.00;-1.00;101062;317;1004360;-40
2023/09/09 07:17:48;;;;;;;12.80;9.10;;;;;;;-128.00;-1.00;-1.00;100737;317;1003312;-34
2023/09/09 07:20:15;;;;;;;12.40;6.80;;;;;;;-128.00;-1.00;-1.00;100987;316;1002968;-31
2023/09/09 07:22:41;;;;;;;13.10;8.10;;;;;;;-128.00;-1.00;-1.00;101119;317;1003300;-31
2023/09/09 07:25:07;;;;;;;16.00;8.10;;;;;;;-128.00;-1.00;-1.00;101044;317;1003216;-34
2023/09/09 07:27:32;;;;;;;12.50;7.70;;;;;;;-128.00;-1.00;-1.00;101064;316;1004779;-31
2023/09/09 07:29:58;;;;;;;9.90;8.10;;;;;;;-128.00;-1.00;-1.00;100971;317;1003873;-37
2023/09/09 07:32:24;;;;;;;15.10;7.00;;;;;;;-128.00;-1.00;-1.00;101029;316;1002848;-35
2023/09/09 07:34:50;;;;;;;16.90;9.70;;;;;;;-128.00;-1.00;-1.00;100943;317;1003967;-33
2023/09/09 07:37:16;;;;;;;10.40;9.30;;;;;;;-128.00;-1.00;-1.00;101060;316;1003588;-31
2023/09/09 07:39:46;;;;;;;14.90;10.10;;;;;;;-128.00;-1.00;-1.00;100988;317;1004226;-36
2023/09/09 07:42:12;;;;;;;12.10;9.40;;;;;;;-128.00;-1.00;-1.00;101017;317;1005591;-31
2023/09/09 07:44:38;;;;;;;14.00;9.30;;;;;;;-128.00;-1.00;-1.00;101033;317;1003019;-30
2023/09/09 07:47:06;;;;;;;19.20;8.50;;;;;;;-128.00;-1.00;-1.00;101034;317;1003141;-33
2023/09/09 07:49:33;;;;;;;13.20;8.40;;;;;;;-128.00;-1.00;-1.00;101054;317;1004835;-33
2023/09/09 07:51:59;;;;;;;10.30;7.20;;;;;;;-128.00;-1.00;-1.00;100937;316;1002838;-33
2023/09/09 07:54:25;;;;;;;9.50;7.10;;;;;;;-128.00;-1.00;-1.00;101033;317;1003897;-37
2023/09/09 07:56:51;;;;;;;10.40;7.90;;;;;;;-128.00;-1.00;-1.00;101057;316;1003135;-37
2023/09/09 07:59:17;;;;;;;10.00;6.10;;;;;;;-128.00;-1.00;-1.00;101049;317;1003274;-35
2023/09/09 08:01:43;;;;;;;5.00;4.40;;;;;;;-128.00;-1.00;-1.00;100928;317;1004306;-35
2023/09/09 08:04:09;;;;;;;6.70;5.00;;;;;;;-128.00;-1.00;-1.00;101026;316;1004550;-31
2023/09/09 08:06:34;;;;;;;5.10;4.60;;;;;;;-128.00;-1.00;-1.00;101017;317;1003403;-35
2023/09/09 08:09:01;;;;;;;8.70;4.60;;;;;;;-128.00;-1.00;-1.00;101022;317;1003881;-35
2023/09/09 08:11:27;;;;;;;10.70;6.00;;;;;;;-128.00;-1.00;-1.00;100976;316;1003538;-31
2023/09/09 08:13:52;;;;;;;4.60;3.80;;;;;;;-128.00;-1.00;-1.00;101048;317;1002633;-32
2023/09/09 08:16:18;;;;;;;5.90;4.50;;;;;;;-128.00;-1.00;-1.00;100740;317;1003620;-32
2023/09/09 08:18:43;;;;;;;7.10;4.80;;;;;;;-128.00;-1.00;-1.00;101032;316;1003325;-36
2023/09/09 08:21:12;;;;;;;9.50;3.80;;;;;;;-128.00;-1.00;-1.00;101059;317;1005499;-35
2023/09/09 08:23:39;;;;;;;5.00;3.90;;;;;;;-128.00;-1.00;-1.00;101051;317;1003423;-36
2023/09/09 08:26:04;;;;;;;;;;;;;;;-128.00;-1.00;-1.00;101068;317;1003365;-32
2023/09/09 08:28:30;;;;;;;6.80;4.70;;;;;;;-128.00;-1.00;-1.00;101012;316;1004850;-36
2023/09/09 08:30:59;;;;;;;9.30;4.80;;;;;;;-128.00;-1.00;-1.00;101028;316;1003088;-32
2023/09/09 08:33:25;;;;;;;6.10;2.80;;;;;;;-128.00;-1.00;-1.00;100813;319;1004454;-35
2023/09/09 08:35:52;;;;;;;7.30;3.80;;;;;;;-128.00;-1.00;-1.00;100989;317;1004283;-32
2023/09/09 08:38:18;;;;;;;6.20;5.40;;;;;;;-128.00;-1.00;-1.00;101028;317;1003380;-36
2023/09/09 08:40:55;;;;;;;5.90;4.60;;;;;;;-128.00;-1.00;-1.00;101040;317;1003245;-32
2023/09/09 08:43:48;;;;;;;5.10;4.60;;;;;;;-128.00;-1.00;-1.00;101028;316;1002952;-31
2023/09/09 08:46:15;;;;;;;4.20;3.80;;;;;;;-128.00;-1.00;-1.00;101059;316;1003042;-35
2023/09/09 08:48:42;;;;;;;5.30;4.50;;;;;;;-128.00;-1.00;-1.00;101091;316;1004773;-35
2023/09/09 08:51:14;;;;;;;4.90;3.90;;;;;;;-128.00;-1.00;-1.00;101156;316;1003600;-35
2023/09/09 08:53:46;;;;;;;2.40;2.20;;;;;;;-128.00;-1.00;-1.00;101061;317;1004723;-35
2023/09/09 08:56:15;;;;;;;8.50;4.10;;;;;;;-128.00;-1.00;-1.00;100684;319;1003843;-31
2023/09/09 08:58:41;;;;;;;7.30;4.30;;;;;;;-128.00;-1.00;-1.00;101078;316;1004656;-35
2023/09/09 09:01:07;;;;;;;3.70;2.90;;;;;;;-128.00;-1.00;-1.00;100717;319;1002852;-36
2023/09/09 09:03:33;;;;;;;4.70;3.80;;;;;;;-128.00;-1.00;-1.00;101086;316;1003804;-32
2023/09/09 09:06:02;;;;;;;5.90;4.20;;;;;;;-128.00;-1.00;-1.00;101035;317;1002873;-32
2023/09/09 09:08:27;;;;;;;5.80;4.70;;;;;;;-128.00;-1.00;-1.00;101040;317;1002914;-32
2023/09/09 09:10:55;;;;;;;5.40;4.80;;;;;;;-128.00;-1.00;-1.00;100973;317;1003204;-36
2023/09/09 09:13:20;;;;;;;4.20;3.80;;;;;;;-128.00;-1.00;-1.00;101053;316;1003839;-33
2023/09/09 09:15:46;;;;;;;5.70;5.00;;;;;;;-128.00;-1.00;-1.00;101025;317;1002942;-36
2023/09/09 09:18:12;;;;;;;4.20;3.80;;;;;;;-128.00;-1.00;-1.00;100964;317;1002968;-36
2023/09/09 09:20:40;;;;;;;4.70;4.10;;;;;;;-128.00;-1.00;-1.00;101028;317;1004530;-39
2023/09/09 09:23:09;;;;;;;6.50;4.00;;;;;;;-128.00;-1.00;-1.00;100227;319;1004301;-31
2023/09/09 09:25:37;;;;;;;7.00;3.20;;;;;;;-128.00;-1.00;-1.00;101033;317;1003731;-36
2023/09/09 09:28:03;;;;;;;7.30;4.80;;;;;;;-128.00;-1.00;-1.00;101024;317;1003289;-32
2023/09/09 09:30:29;;;;;;;3.80;3.30;;;;;;;-128.00;-1.00;-1.00;101021;317;1003153;-32
2023/09/09 09:32:55;;;;;;;6.40;4.20;;;;;;;-128.00;-1.00;-1.00;100991;317;1003442;-35
2023/09/09 09:35:31;;;;;;;7.70;4.30;;;;;;;-128.00;-1.00;-1.00;101064;317;1003020;-36
2023/09/09 09:37:59;;;;;;;5.60;4.90;;;;;;;-128.00;-1.00;-1.00;100982;317;1002975;-32
2023/09/09 09:40:25;;;;;;;8.20;3.80;;;;;;;-128.00;-1.00;-1.00;101019;317;1002386;-32
2023/09/09 09:42:51;;;;;;;4.00;3.00;;;;;;;-128.00;-1.00;-1.00;101094;316;1003880;-31
2023/09/09 09:45:17;;;;;;;10.10;4.80;;;;;;;-128.00;-1.00;-1.00;100984;316;1004851;-31
2023/09/09 09:47:47;;;;;;;4.10;3.40;;;;;;;-128.00;-1.00;-1.00;100633;317;1002344;-31
2023/09/09 09:50:28;;;;;;;5.10;4.60;;;;;;;-128.00;-1.00;-1.00;101030;316;1003010;-35
2023/09/09 09:53:02;;;;;;;4.70;3.70;;;;;;;-128.00;-1.00;-1.00;101004;317;1004582;-31
2023/09/09 09:55:29;;;;;;;2.80;2.40;;;;;;;-128.00;-1.00;-1.00;100993;317;1004605;-32
2023/09/09 09:58:03;;;;;;;5.30;4.00;;;;;;;-128.00;-1.00;-1.00;100690;322;1002683;-34
2023/09/09 10:00:29;;;;;;;5.90;4.70;;;;;;;-128.00;-1.00;-1.00;100983;316;1003695;-33
2023/09/09 10:02:56;;;;;;;7.30;4.10;;;;;;;-128.00;-1.00;-1.00;101049;317;1003542;-37
2023/09/09 10:05:23;;;;;;;4.80;4.10;;;;;;;-128.00;-1.00;-1.00;101058;317;1002750;-35
2023/09/09 10:07:56;;;;;;;5.40;4.60;;;;;;;-128.00;-1.00;-1.00;101041;317;1002986;-31
2023/09/09 10:10:23;;;;;;;3.60;3.30;;;;;;;-128.00;-1.00;-1.00;101027;317;1003428;-31
2023/09/09 10:12:57;;;;;;;4.30;3.40;;;;;;;-128.00;-1.00;-1.00;101022;317;1002873;-35
2023/09/09 10:15:23;;;;;;;4.60;3.90;;;;;;;-128.00;-1.00;-1.00;100989;316;1002738;-31
2023/09/09 10:17:51;;;;;;;5.00;4.40;;;;;;;-128.00;-1.00;-1.00;101052;316;1003648;-35
2023/09/09 10:20:17;;;;;;;3.60;3.20;;;;;;;-128.00;-1.00;-1.00;101029;317;1002804;-31
2023/09/09 10:22:43;;;;;;;7.60;3.10;;;;;;;-128.00;-1.00;-1.00;100968;317;1002782;-35
2023/09/09 10:25:10;;;;;;;3.90;2.90;;;;;;;-128.00;-1.00;-1.00;100726;317;1003217;-31
2023/09/09 10:27:37;;;;;;;10.40;4.40;;;;;;;-128.00;-1.00;-1.00;101112;316;1002778;-31
2023/09/09 10:30:03;;;;;;;3.40;3.10;;;;;;;-128.00;-1.00;-1.00;100970;317;1003120;-36
2023/09/09 10:32:28;;;;;;;4.30;3.00;;;;;;;-128.00;-1.00;-1.00;101142;316;1002965;-35
2023/09/09 10:34:54;;;;;;;4.00;3.40;;;;;;;-128.00;-1.00;-1.00;101012;317;1003954;-31
2023/09/09 10:37:20;;;;;;;5.00;4.00;;;;;;;-128.00;-1.00;-1.00;100934;317;1003147;-35
2023/09/09 10:39:47;;;;;;;6.30;3.90;;;;;;;-128.00;-1.00;-1.00;101046;316;1002860;-31
2023/09/09 10:42:12;;;;;;;5.00;3.00;;;;;;;-128.00;-1.00;-1.00;101015;316;1003931;-30
2023/09/09 10:44:38;;;;;;;4.30;2.40;;;;;;;-128.00;-1.00;-1.00;100996;317;1003446;-41
2023/09/09 10:47:04;;;;;;;4.80;3.90;;;;;;;-128.00;-1.00;-1.00;101060;317;1003784;-31
2023/09/09 10:49:30;;;;;;;5.10;3.30;;;;;;;-128.00;-1.00;-1.00;101032;317;1004531;-35
2023/09/09 10:51:56;;;;;;;4.80;3.30;;;;;;;-128.00;-1.00;-1.00;101056;317;1005343;-35
2023/09/09 10:54:24;;;;;;;3.40;2.70;;;;;;;-128.00;-1.00;-1.00;101035;317;1004188;-35
2023/09/09 10:56:54;;;;;;;3.70;3.30;;;;;;;-128.00;-1.00;-1.00;101018;317;1004765;-35
2023/09/09 10:59:21;;;;;;;2.80;2.40;;;;;;;-128.00;-1.00;-1.00;101029;317;1003105;-35
2023/09/09 11:01:48;;;;;;;3.60;3.30;;;;;;;-128.00;-1.00;-1.00;101078;317;1003465;-31
2023/09/09 11:04:22;;;;;;;3.50;2.90;;;;;;;-128.00;-1.00;-1.00;101033;317;1003359;-31
2023/09/09 11:07:07;;;;;;;4.60;2.70;;;;;;;-128.00;-1.00;-1.00;101025;316;1003120;-33
2023/09/09 11:09:34;;;;;;;4.00;3.60;;;;;;;-128.00;-1.00;-1.00;101099;317;1003481;-35
2023/09/09 11:11:59;;;;;;;3.90;3.00;;;;;;;-128.00;-1.00;-1.00;101061;317;1004120;-35
2023/09/09 11:14:30;;;;;;;4.60;3.30;;;;;;;-128.00;-1.00;-1.00;101039;317;1003491;-35
2023/09/09 11:16:55;;;;;;;3.00;2.20;;;;;;;-128.00;-1.00;-1.00;101018;317;1003449;-36
2023/09/09 11:19:23;;;;;;;3.40;2.70;;;;;;;-128.00;-1.00;-1.00;100708;317;1004511;-37
2023/09/09 11:21:50;;;;;;;4.00;2.90;;;;;;;-128.00;-1.00;-1.00;101083;316;1003244;-33
2023/09/09 11:24:16;;;;;;;3.50;3.10;;;;;;;-128.00;-1.00;-1.00;101052;317;1003475;-33
2023/09/09 11:26:44;;;;;;;2.10;1.90;;;;;;;-128.00;-1.00;-1.00;101004;317;1004825;-37
2023/09/09 11:29:10;;;;;;;3.80;2.90;;;;;;;-128.00;-1.00;-1.00;101103;317;1004144;-36
2023/09/09 11:31:35;;;;;;;3.50;2.90;;;;;;;-128.00;-1.00;-1.00;101063;317;1003985;-41
2023/09/09 11:34:01;;;;;;;3.00;2.10;;;;;;;-128.00;-1.00;-1.00;100960;317;1002933;-35
2023/09/09 11:36:28;;;;;;;2.50;2.00;;;;;;;-128.00;-1.00;-1.00;101039;317;1003804;-35
2023/09/09 11:38:56;;;;;;;9.20;3.70;;;;;;;-128.00;-1.00;-1.00;101054;316;1004115;-35
2023/09/09 11:41:23;;;;;;;5.10;3.20;;;;;;;-128.00;-1.00;-1.00;101007;317;1004309;-37
2023/09/09 11:44:02;;;;;;;6.60;4.20;;;;;;;-128.00;-1.00;-1.00;101067;317;1004776;-31
2023/09/09 11:46:38;;;;;;;2.60;2.40;;;;;;;-128.00;-1.00;-1.00;101012;316;1005237;-38
2023/09/09 11:49:04;;;;;;;5.30;4.70;;;;;;;-128.00;-1.00;-1.00;101027;317;1003975;-35
2023/09/09 11:51:30;;;;;;;6.80;2.70;;;;;;;-128.00;-1.00;-1.00;101100;317;1004532;-33
2023/09/09 11:53:55;;;;;;;4.00;2.20;;;;;;;-128.00;-1.00;-1.00;101063;317;1003081;-35
2023/09/09 11:56:21;;;;;;;3.20;2.70;;;;;;;-128.00;-1.00;-1.00;101052;317;1003244;-31
2023/09/09 11:58:48;;;;;;;4.60;3.20;;;;;;;-128.00;-1.00;-1.00;100918;317;1003303;-35